sensor_id;sensor_type;location;lat;lon;timestamp;pressure;altitude;pressure_sealevel;temperature;humidity
64362;BME280;50685;53.346;-6.296;2023-10-13T00:14:14;100134.34;;;13.35;100.00
64362;BME280;50685;53.346;-6.296;2023-10-13T00:17:10;100126.34;;;13.35;100.00
64362;BME280;50685;53.346;-6.296;2023-10-13T00:19:49;100127.34;;;13.32;100.00
64362;BME280;50685;53.346;-6.296;2023-10-13T00:22:54;100123.97;;;13.27;100.00
64362;BME280;50685;53.346;-6.296;2023-10-13T00:25:29;100115.38;;;13.19;100.00
64362;BME280;50685;53.346;-6.296;2023-10-13T00:28:11;100115.59;;;13.13;100.00
64362;BME280;50685;53.346;-6.296;2023-10-13T00:34:15;100112.22;;;13.08;100.00
64362;BME280;50685;53.346;-6.296;2023-10-13T02:21:17;99901.47;;;12.20;100.00
64362;BME280;50685;53.346;-6.296;2023-10-13T03:12:31;99796.88;;;11.95;100.00
64362;BME280;50685;53.346;-6.296;2023-10-13T03:15:07;99795.28;;;11.89;100.00
64362;BME280;50685;53.346;-6.296;2023-10-13T03:17:43;99790.97;;;11.86;100.00
64362;BME280;50685;53.346;-6.296;2023-10-13T03:20:16;99786.47;;;11.88;100.00
64362;BME280;50685;53.346;-6.296;2023-10-13T03:33:31;99779.50;;;11.84;100.00
64362;BME280;50685;53.346;-6.296;2023-10-13T03:36:01;99779.50;;;11.84;100.00
64362;BME280;50685;53.346;-6.296;2023-10-13T03:38:32;99763.50;;;11.86;100.00
64362;BME280;50685;53.346;-6.296;2023-10-13T03:41:21;99771.44;;;11.87;100.00
64362;BME280;50685;53.346;-6.296;2023-10-13T03:57:08;99744.69;;;11.67;100.00
64362;BME280;50685;53.346;-6.296;2023-10-13T03:59:49;99749.19;;;11.65;100.00
64362;BME280;50685;53.346;-6.296;2023-10-13T04:02:15;99742.03;;;11.67;100.00
64362;BME280;50685;53.346;-6.296;2023-10-13T04:04:51;99751.91;;;11.63;100.00
64362;BME280;50685;53.346;-6.296;2023-10-13T04:07:36;99748.19;;;11.67;100.00
64362;BME280;50685;53.346;-6.296;2023-10-13T04:10:26;99739.59;;;11.61;100.00
64362;BME280;50685;53.346;-6.296;2023-10-13T04:16:00;99725.63;;;11.55;100.00
64362;BME280;50685;53.346;-6.296;2023-10-13T04:18:44;99721.97;;;11.58;100.00
64362;BME280;50685;53.346;-6.296;2023-10-13T04:21:41;99720.19;;;11.58;100.00
64362;BME280;50685;53.346;-6.296;2023-10-13T04:24:11;99720.31;;;11.55;100.00
64362;BME280;50685;53.346;-6.296;2023-10-13T04:26:51;99724.91;;;11.50;100.00
64362;BME280;50685;53.346;-6.296;2023-10-13T04:29:35;99722.44;;;11.44;100.00
64362;BME280;50685;53.346;-6.296;2023-10-13T04:32:16;99722.63;;;11.39;100.00
64362;BME280;50685;53.346;-6.296;2023-10-13T04:34:55;99722.75;;;11.35;100.00
64362;BME280;50685;53.346;-6.296;2023-10-13T04:42:44;99739.81;;;11.28;100.00
64362;BME280;50685;53.346;-6.296;2023-10-13T04:50:51;99741.69;;;11.24;100.00
64362;BME280;50685;53.346;-6.296;2023-10-13T04:53:18;99733.97;;;11.16;100.00
64362;BME280;50685;53.346;-6.296;2023-10-13T04:55:58;99732.69;;;11.01;100.00
64362;BME280;50685;53.346;-6.296;2023-10-13T04:58:27;99731.16;;;10.94;100.00
64362;BME280;50685;53.346;-6.296;2023-10-13T05:01:13;99734.78;;;10.91;100.00
64362;BME280;50685;53.346;-6.296;2023-10-13T05:03:50;99744.63;;;10.86;100.00
64362;BME280;50685;53.346;-6.296;2023-10-13T05:06:47;99751.97;;;10.78;100.00
64362;BME280;50685;53.346;-6.296;2023-10-13T05:14:42;99777.72;;;10.74;100.00
64362;BME280;50685;53.346;-6.296;2023-10-13T05:17:26;99783.34;;;10.64;100.00
64362;BME280;50685;53.346;-6.296;2023-10-13T05:20:10;99785.31;;;10.57;100.00
64362;BME280;50685;53.346;-6.296;2023-10-13T05:22:54;99787.91;;;10.58;100.00
64362;BME280;50685;53.346;-6.296;2023-10-13T05:30:48;99767.63;;;10.57;100.00
64362;BME280;50685;53.346;-6.296;2023-10-13T05:33:32;99773.09;;;10.51;100.00
64362;BME280;50685;53.346;-6.296;2023-10-13T05:36:16;99775.22;;;10.38;100.00
64362;BME280;50685;53.346;-6.296;2023-10-13T05:39:00;99769.16;;;10.33;100.00
64362;BME280;50685;53.346;-6.296;2023-10-13T05:41:44;99761.31;;;10.28;100.00
64362;BME280;50685;53.346;-6.296;2023-10-13T05:44:31;99767.63;;;10.24;100.00
64362;BME280;50685;53.346;-6.296;2023-10-13T05:47:23;99748.47;;;10.15;100.00
64362;BME280;50685;53.346;-6.296;2023-10-13T06:05:55;99753.56;;;10.22;100.00
64362;BME280;50685;53.346;-6.296;2023-10-13T06:11:50;99753.56;;;10.22;100.00
64362;BME280;50685;53.346;-6.296;2023-10-13T06:14:36;99769.44;;;10.24;100.00
64362;BME280;50685;53.346;-6.296;2023-10-13T06:17:24;99747.41;;;10.22;100.00
64362;BME280;50685;53.346;-6.296;2023-10-13T06:20:10;99727.03;;;10.24;100.00
64362;BME280;50685;53.346;-6.296;2023-10-13T06:22:54;99713.63;;;10.28;100.00
64362;BME280;50685;53.346;-6.296;2023-10-13T06:28:14;99709.28;;;10.26;100.00
64362;BME280;50685;53.346;-6.296;2023-10-13T06:31:19;99713.69;;;10.27;100.00
64362;BME280;50685;53.346;-6.296;2023-10-13T06:34:02;99723.50;;;10.23;100.00
64362;BME280;50685;53.346;-6.296;2023-10-13T06:36:33;99743.06;;;10.19;100.00
64362;BME280;50685;53.346;-6.296;2023-10-13T07:20:15;99792.03;;;10.36;100.00
64362;BME280;50685;53.346;-6.296;2023-10-13T07:23:38;99800.69;;;10.44;100.00
64362;BME280;50685;53.346;-6.296;2023-10-13T07:33:03;99825.28;;;10.49;100.00
64362;BME280;50685;53.346;-6.296;2023-10-13T07:42:09;99829.16;;;10.36;100.00
64362;BME280;50685;53.346;-6.296;2023-10-13T07:47:50;99847.50;;;10.45;100.00
64362;BME280;50685;53.346;-6.296;2023-10-13T07:53:44;99845.53;;;10.52;100.00
64362;BME280;50685;53.346;-6.296;2023-10-13T07:56:14;99842.81;;;10.55;100.00
64362;BME280;50685;53.346;-6.296;2023-10-13T07:58:43;99840.91;;;10.60;100.00
64362;BME280;50685;53.346;-6.296;2023-10-13T08:01:31;99839.09;;;10.60;100.00
64362;BME280;50685;53.346;-6.296;2023-10-13T08:03:59;99844.31;;;10.64;100.00
64362;BME280;50685;53.346;-6.296;2023-10-13T08:06:50;99855.91;;;10.61;100.00
64362;BME280;50685;53.346;-6.296;2023-10-13T08:09:30;99865.53;;;10.64;100.00
64362;BME280;50685;53.346;-6.296;2023-10-13T08:11:57;99865.44;;;10.67;100.00
64362;BME280;50685;53.346;-6.296;2023-10-13T08:14:30;99881.22;;;10.71;100.00
64362;BME280;50685;53.346;-6.296;2023-10-13T08:19:50;99882.91;;;10.74;100.00
64362;BME280;50685;53.346;-6.296;2023-10-13T08:22:15;99882.00;;;10.75;100.00
64362;BME280;50685;53.346;-6.296;2023-10-13T08:24:44;99878.50;;;10.74;100.00
64362;BME280;50685;53.346;-6.296;2023-10-13T08:27:13;99891.47;;;10.85;100.00
64362;BME280;50685;53.346;-6.296;2023-10-13T08:29:57;99889.25;;;11.01;100.00
64362;BME280;50685;53.346;-6.296;2023-10-13T08:32:23;99881.63;;;11.19;100.00
64362;BME280;50685;53.346;-6.296;2023-10-13T08:34:51;99881.34;;;11.28;100.00
64362;BME280;50685;53.346;-6.296;2023-10-13T08:37:20;99872.31;;;11.34;100.00
64362;BME280;50685;53.346;-6.296;2023-10-13T08:39:49;99876.97;;;11.27;100.00
64362;BME280;50685;53.346;-6.296;2023-10-13T08:42:43;99888.56;;;11.24;100.00
64362;BME280;50685;53.346;-6.296;2023-10-13T08:45:13;99878.25;;;11.14;100.00
64362;BME280;50685;53.346;-6.296;2023-10-13T08:47:52;99901.31;;;11.12;100.00
64362;BME280;50685;53.346;-6.296;2023-10-13T08:50:49;99908.59;;;11.05;100.00
64362;BME280;50685;53.346;-6.296;2023-10-13T08:56:10;99900.81;;;10.99;100.00
64362;BME280;50685;53.346;-6.296;2023-10-13T08:59:01;99901.63;;;11.01;100.00
64362;BME280;50685;53.346;-6.296;2023-10-13T09:01:35;99900.72;;;11.02;100.00
64362;BME280;50685;53.346;-6.296;2023-10-13T09:04:19;99906.91;;;11.01;100.00
64362;BME280;50685;53.346;-6.296;2023-10-13T09:09:24;99912.50;;;10.91;100.00
64362;BME280;50685;53.346;-6.296;2023-10-13T09:14:42;99915.72;;;11.03;100.00
64362;BME280;50685;53.346;-6.296;2023-10-13T09:17:12;99914.66;;;11.08;100.00
64362;BME280;50685;53.346;-6.296;2023-10-13T09:24:54;99926.75;;;11.19;100.00
64362;BME280;50685;53.346;-6.296;2023-10-13T09:27:23;99931.78;;;11.28;100.00
64362;BME280;50685;53.346;-6.296;2023-10-13T09:30:02;99934.22;;;11.36;100.00
64362;BME280;50685;53.346;-6.296;2023-10-13T09:32:58;99931.19;;;11.48;100.00
64362;BME280;50685;53.346;-6.296;2023-10-13T09:35:26;99937.88;;;11.62;100.00
64362;BME280;50685;53.346;-6.296;2023-10-13T09:38:01;99938.72;;;11.62;100.00
64362;BME280;50685;53.346;-6.296;2023-10-13T09:40:30;99933.47;;;11.61;100.00
64362;BME280;50685;53.346;-6.296;2023-10-13T09:43:03;99929.50;;;11.74;100.00
64362;BME280;50685;53.346;-6.296;2023-10-13T09:45:33;99939.53;;;11.93;100.00
64362;BME280;50685;53.346;-6.296;2023-10-13T09:48:03;99932.22;;;12.01;100.00
64362;BME280;50685;53.346;-6.296;2023-10-13T09:50:46;99944.63;;;12.00;100.00
64362;BME280;50685;53.346;-6.296;2023-10-13T09:56:13;99942.53;;;12.10;100.00
64362;BME280;50685;53.346;-6.296;2023-10-13T09:58:48;99947.09;;;12.07;100.00
64362;BME280;50685;53.346;-6.296;2023-10-13T10:01:24;99949.72;;;12.08;100.00
64362;BME280;50685;53.346;-6.296;2023-10-13T10:07:28;99951.09;;;12.20;100.00
64362;BME280;50685;53.346;-6.296;2023-10-13T10:10:02;99948.94;;;12.31;100.00
64362;BME280;50685;53.346;-6.296;2023-10-13T10:12:32;99956.75;;;12.36;100.00
64362;BME280;50685;53.346;-6.296;2023-10-13T10:31:16;99975.41;;;12.86;100.00
64362;BME280;50685;53.346;-6.296;2023-10-13T10:34:16;99975.72;;;13.02;100.00
64362;BME280;50685;53.346;-6.296;2023-10-13T10:40:09;99979.19;;;13.30;100.00
64362;BME280;50685;53.346;-6.296;2023-10-13T10:45:53;99983.16;;;13.43;100.00
64362;BME280;50685;53.346;-6.296;2023-10-13T10:48:40;99979.94;;;13.33;100.00
64362;BME280;50685;53.346;-6.296;2023-10-13T10:51:12;99985.88;;;13.16;100.00
64362;BME280;50685;53.346;-6.296;2023-10-13T10:53:58;99979.91;;;13.10;100.00
64362;BME280;50685;53.346;-6.296;2023-10-13T10:56:36;99975.94;;;12.96;100.00
64362;BME280;50685;53.346;-6.296;2023-10-13T10:59:19;99980.69;;;12.88;100.00
64362;BME280;50685;53.346;-6.296;2023-10-13T11:01:50;99980.72;;;12.86;100.00
64362;BME280;50685;53.346;-6.296;2023-10-13T11:04:18;99977.28;;;12.84;100.00
64362;BME280;50685;53.346;-6.296;2023-10-13T11:06:50;99976.66;;;12.76;100.00
64362;BME280;50685;53.346;-6.296;2023-10-13T11:09:27;99994.44;;;12.76;100.00
64362;BME280;50685;53.346;-6.296;2023-10-13T11:12:24;99981.38;;;12.68;100.00
64362;BME280;50685;53.346;-6.296;2023-10-13T11:15:10;99982.41;;;12.64;100.00
64362;BME280;50685;53.346;-6.296;2023-10-13T11:17:51;99996.78;;;12.58;100.00
64362;BME280;50685;53.346;-6.296;2023-10-13T11:20:20;99989.28;;;12.44;100.00
64362;BME280;50685;53.346;-6.296;2023-10-13T11:22:59;99991.31;;;12.36;100.00
64362;BME280;50685;53.346;-6.296;2023-10-13T11:25:30;99978.91;;;12.36;100.00
64362;BME280;50685;53.346;-6.296;2023-10-13T11:28:10;99986.56;;;12.46;100.00
64362;BME280;50685;53.346;-6.296;2023-10-13T11:30:52;99988.09;;;12.53;100.00
64362;BME280;50685;53.346;-6.296;2023-10-13T11:33:27;99987.03;;;12.59;100.00
64362;BME280;50685;53.346;-6.296;2023-10-13T11:35:57;99979.59;;;12.68;100.00
64362;BME280;50685;53.346;-6.296;2023-10-13T11:38:29;99986.28;;;12.80;100.00
64362;BME280;50685;53.346;-6.296;2023-10-13T11:41:03;99993.59;;;12.99;98.11
64362;BME280;50685;53.346;-6.296;2023-10-13T11:43:43;100000.94;;;13.17;100.00
64362;BME280;50685;53.346;-6.296;2023-10-13T11:46:15;99994.38;;;13.52;100.00
64362;BME280;50685;53.346;-6.296;2023-10-13T11:48:50;99998.13;;;13.70;96.00
64362;BME280;50685;53.346;-6.296;2023-10-13T11:51:30;99995.06;;;13.57;91.76
64362;BME280;50685;53.346;-6.296;2023-10-13T11:53:58;99985.69;;;13.46;93.49
64362;BME280;50685;53.346;-6.296;2023-10-13T11:58:59;99999.31;;;13.39;97.39
64362;BME280;50685;53.346;-6.296;2023-10-13T12:01:28;99982.94;;;13.24;99.01
64362;BME280;50685;53.346;-6.296;2023-10-13T12:04:12;99979.69;;;13.16;98.94
64362;BME280;50685;53.346;-6.296;2023-10-13T12:10:15;100004.97;;;13.04;100.00
64362;BME280;50685;53.346;-6.296;2023-10-13T12:13:00;99995.94;;;13.08;100.00
64362;BME280;50685;53.346;-6.296;2023-10-13T12:15:50;100010.56;;;13.22;99.01
64362;BME280;50685;53.346;-6.296;2023-10-13T12:18:17;100013.69;;;13.33;96.95
64362;BME280;50685;53.346;-6.296;2023-10-13T12:20:53;100014.41;;;13.38;100.00
64362;BME280;50685;53.346;-6.296;2023-10-13T12:23:27;100014.06;;;13.22;95.95
64362;BME280;50685;53.346;-6.296;2023-10-13T12:26:01;100008.66;;;13.25;99.66
64362;BME280;50685;53.346;-6.296;2023-10-13T12:31:47;100000.28;;;13.34;100.00
64362;BME280;50685;53.346;-6.296;2023-10-13T12:34:32;99996.25;;;13.49;98.53
64362;BME280;50685;53.346;-6.296;2023-10-13T12:37:27;100008.22;;;13.61;98.83
64362;BME280;50685;53.346;-6.296;2023-10-13T12:43:23;100002.94;;;14.06;100.00
64362;BME280;50685;53.346;-6.296;2023-10-13T12:49:35;99997.47;;;14.53;87.69
64362;BME280;50685;53.346;-6.296;2023-10-13T12:52:25;99987.69;;;14.74;76.00
64362;BME280;50685;53.346;-6.296;2023-10-13T12:55:02;100006.66;;;15.09;75.43
64362;BME280;50685;53.346;-6.296;2023-10-13T12:57:45;100001.59;;;15.62;68.87
64362;BME280;50685;53.346;-6.296;2023-10-13T13:00:13;100005.75;;;16.08;63.70
64362;BME280;50685;53.346;-6.296;2023-10-13T13:02:48;100004.94;;;16.42;62.21
64362;BME280;50685;53.346;-6.296;2023-10-13T13:05:16;100004.50;;;16.69;60.35
64362;BME280;50685;53.346;-6.296;2023-10-13T13:07:53;100009.47;;;16.94;57.57
64362;BME280;50685;53.346;-6.296;2023-10-13T13:13:38;100007.31;;;16.83;56.81
64362;BME280;50685;53.346;-6.296;2023-10-13T13:16:04;100005.34;;;16.69;57.17
64362;BME280;50685;53.346;-6.296;2023-10-13T13:18:35;100014.75;;;16.42;59.11
64362;BME280;50685;53.346;-6.296;2023-10-13T13:21:02;100021.88;;;15.87;61.83
64362;BME280;50685;53.346;-6.296;2023-10-13T13:23:34;100046.94;;;15.45;64.47
64362;BME280;50685;53.346;-6.296;2023-10-13T13:26:05;100061.78;;;14.90;70.13
64362;BME280;50685;53.346;-6.296;2023-10-13T14:05:07;100071.66;;;17.01;55.54
64362;BME280;50685;53.346;-6.296;2023-10-13T14:07:48;100075.88;;;17.05;53.80
64362;BME280;50685;53.346;-6.296;2023-10-13T17:03:44;100345.88;;;12.02;100.00
64362;BME280;50685;53.346;-6.296;2023-10-13T17:19:24;100379.56;;;11.64;100.00
64362;BME280;50685;53.346;-6.296;2023-10-13T17:21:49;100388.59;;;11.58;100.00
64362;BME280;50685;53.346;-6.296;2023-10-13T17:27:39;100395.28;;;11.35;100.00
64362;BME280;50685;53.346;-6.296;2023-10-13T17:33:13;100405.28;;;11.24;100.00
64362;BME280;50685;53.346;-6.296;2023-10-13T17:35:49;100413.28;;;11.22;100.00
64362;BME280;50685;53.346;-6.296;2023-10-13T17:41:42;100420.63;;;11.09;100.00
64362;BME280;50685;53.346;-6.296;2023-10-13T17:44:37;100418.91;;;11.07;100.00
64362;BME280;50685;53.346;-6.296;2023-10-13T17:47:25;100425.25;;;11.00;100.00
64362;BME280;50685;53.346;-6.296;2023-10-13T17:50:10;100423.66;;;10.91;100.00
64362;BME280;50685;53.346;-6.296;2023-10-13T17:56:01;100436.94;;;10.89;100.00
